Time;durP1;ratioP1;P1;durP2;ratioP2;P2;SDS_P1;SDS_P2;PMS_P1;PMS_P2;Temp;Humidity;BMP_temperature;BMP_pressure;BME280_temperature;BME280_humidity;BME280_pressure;Samples;Min_cycle;Max_cycle;Signal;HPM_P1;HPM_P2
2022/04/27 00:05:02;;;;;;;26.85;14.38;;;;;;;;;;4294576;81;28547;-82
2022/04/27 00:11:04;;;;;;;30.72;15.38;;;;;;;;;;4293431;81;28484;-80
2022/04/27 00:17:04;;;;;;;30.27;16.52;;;;;;;;;;4295637;81;28587;-82
2022/04/27 00:23:05;;;;;;;28.73;14.38;;;;;;;;;;4285194;82;28500;-82
2022/04/27 00:29:07;;;;;;;25.52;13.85;;;;;;;;;;4292260;81;28513;-80
2022/04/27 00:35:08;;;;;;;27.67;13.75;;;;;;;;;;4288917;81;28564;-81
2022/04/27 00:41:09;;;;;;;29.45;15.15;;;;;;;;;;4274570;81;28535;-80
2022/04/27 00:47:10;;;;;;;27.55;14.53;;;;;;;;;;4291873;81;28443;-80
2022/04/27 00:53:11;;;;;;;31.48;15.30;;;;;;;;;;4291782;81;28488;-80
2022/04/27 00:59:13;;;;;;;27.15;14.03;;;;;;;;;;4257357;82;28528;-80
2022/04/27 01:05:16;;;;;;;24.05;12.78;;;;;;;;;;4288246;82;28542;-82
2022/04/27 01:11:17;;;;;;;23.25;11.93;;;;;;;;;;4276349;82;28551;-81
2022/04/27 01:17:23;;;;;;;29.60;14.75;;;;;;;;;;4282329;82;28546;-82
2022/04/27 01:23:26;;;;;;;31.77;15.45;;;;;;;;;;4277355;83;28492;-81
2022/04/27 01:29:27;;;;;;;30.70;15.70;;;;;;;;;;4261572;82;28559;-81
2022/04/27 01:35:28;;;;;;;28.38;13.75;;;;;;;;;;4280797;82;28508;-78
2022/04/27 01:41:29;;;;;;;26.17;13.45;;;;;;;;;;4265724;82;28554;-79
2022/04/27 01:47:30;;;;;;;25.37;13.13;;;;;;;;;;4282459;82;29009;-79
2022/04/27 01:59:51;;;;;;;23.95;12.70;;;;;;;;;;4302872;81;28509;-79
2022/04/27 02:05:56;;;;;;;26.27;13.95;;;;;;;;;;4306308;82;28465;-78
2022/04/27 02:12:03;;;;;;;27.40;13.58;;;;;;;;;;4218784;83;28545;-79
2022/04/27 02:18:02;;;;;;;26.02;13.13;;;;;;;;;;4272660;82;28460;-79
2022/04/27 02:24:03;;;;;;;26.25;12.70;;;;;;;;;;4298994;82;28544;-78
2022/04/27 02:30:05;;;;;;;24.43;12.43;;;;;;;;;;4293893;81;28598;-79
2022/04/27 02:36:07;;;;;;;27.27;14.33;;;;;;;;;;4299965;82;28532;-80
2022/04/27 02:42:08;;;;;;;26.37;13.68;;;;;;;;;;4305429;81;28493;-79
2022/04/27 02:48:10;;;;;;;28.50;14.28;;;;;;;;;;4304003;81;28485;-79
2022/04/27 02:54:11;;;;;;;22.55;12.28;;;;;;;;;;4303977;82;28544;-80
2022/04/27 03:00:13;;;;;;;24.35;13.00;;;;;;;;;;4280217;82;28564;-77
2022/04/27 03:06:13;;;;;;;24.85;13.22;;;;;;;;;;4289190;81;28564;-78
2022/04/27 03:12:14;;;;;;;24.43;13.32;;;;;;;;;;4283977;81;28549;-77
2022/04/27 03:18:19;;;;;;;31.25;14.30;;;;;;;;;;4304464;81;28551;-78
2022/04/27 03:24:21;;;;;;;29.55;14.60;;;;;;;;;;4267301;81;28561;-78
2022/04/27 03:30:22;;;;;;;23.67;12.58;;;;;;;;;;4305263;81;28500;-78
2022/04/27 03:36:25;;;;;;;25.17;12.88;;;;;;;;;;4303402;81;28534;-78
2022/04/27 03:42:27;;;;;;;25.08;12.35;;;;;;;;;;4303535;81;28480;-78
2022/04/27 03:48:29;;;;;;;26.87;13.75;;;;;;;;;;4299440;81;28494;-77
2022/04/27 03:54:31;;;;;;;25.48;13.13;;;;;;;;;;4288583;82;28541;-78
2022/04/27 04:00:32;;;;;;;27.60;14.25;;;;;;;;;;4287032;81;28521;-78
2022/04/27 04:06:39;;;;;;;26.68;13.45;;;;;;;;;;4281936;82;28563;-77
2022/04/27 04:12:41;;;;;;;25.00;13.55;;;;;;;;;;4282637;83;28563;-77
2022/04/27 04:18:47;;;;;;;24.77;13.35;;;;;;;;;;4243690;82;28523;-77
2022/04/27 04:31:17;;;;;;;31.17;14.83;;;;;;;;;;4279377;82;28500;-77
2022/04/27 04:37:23;;;;;;;;;;;;;;;;;;4269960;82;28484;-77
2022/04/27 04:43:25;;;;;;;32.33;16.15;;;;;;;;;;4287210;82;20656;-79
2022/04/27 04:49:28;;;;;;;29.50;14.87;;;;;;;;;;4284842;83;28547;-79
2022/04/27 04:55:31;;;;;;;29.27;14.83;;;;;;;;;;4266781;82;28516;-79
2022/04/27 05:01:51;;;;;;;28.15;14.35;;;;;;;;;;4283793;82;28552;-79
2022/04/27 05:07:53;;;;;;;32.08;16.77;;;;;;;;;;4281239;82;28532;-78
2022/04/27 05:13:56;;;;;;;30.72;16.32;;;;;;;;;;4276105;82;28478;-78
2022/04/27 05:19:59;;;;;;;31.60;16.27;;;;;;;;;;4282989;82;28477;-78
2022/04/27 05:26:18;;;;;;;30.75;15.68;;;;;;;;;;4284760;82;28551;-79
2022/04/27 05:32:27;;;;;;;32.25;15.13;;;;;;;;;;4258271;82;28511;-78
2022/04/27 05:38:29;;;;;;;31.80;15.55;;;;;;;;;;4217537;83;28520;-79
2022/04/27 05:44:47;;;;;;;28.57;14.33;;;;;;;;;;4286086;81;28539;-80
2022/04/27 05:51:05;;;;;;;30.27;16.40;;;;;;;;;;4271741;82;28521;-79
2022/04/27 05:57:11;;;;;;;31.27;15.30;;;;;;;;;;4276079;82;28545;-80
2022/04/27 06:03:20;;;;;;;30.45;15.50;;;;;;;;;;4273531;82;28559;-79
2022/04/27 06:09:20;;;;;;;29.63;15.65;;;;;;;;;;4280485;82;28516;-78
2022/04/27 06:15:29;;;;;;;30.27;16.35;;;;;;;;;;4259195;83;28487;-79
2022/04/27 06:21:32;;;;;;;31.70;14.38;;;;;;;;;;4276812;82;28532;-76
2022/04/27 06:27:33;;;;;;;32.10;15.65;;;;;;;;;;4279657;82;28516;-74
2022/04/27 06:33:35;;;;;;;33.55;16.32;;;;;;;;;;4262782;82;28548;-75
2022/04/27 06:39:38;;;;;;;32.98;16.93;;;;;;;;;;4273604;82;28488;-73
2022/04/27 06:45:39;;;;;;;38.25;18.25;;;;;;;;;;4277138;82;28512;-75
2022/04/27 06:51:59;;;;;;;34.53;17.95;;;;;;;;;;4265391;82;28511;-76
2022/04/27 06:58:17;;;;;;;33.63;17.30;;;;;;;;;;4198638;81;28562;-75
2022/04/27 07:04:20;;;;;;;33.65;16.87;;;;;;;;;;4279576;81;28571;-75
2022/04/27 07:10:21;;;;;;;36.35;18.05;;;;;;;;;;4294139;81;28500;-74
2022/04/27 07:16:22;;;;;;;38.65;19.60;;;;;;;;;;4281434;81;28507;-75
2022/04/27 07:22:23;;;;;;;36.13;18.90;;;;;;;;;;4298097;81;28518;-73
2022/04/27 07:28:24;;;;;;;33.73;17.15;;;;;;;;;;4277070;82;28549;-75
2022/04/27 07:34:25;;;;;;;33.50;18.85;;;;;;;;;;4303252;81;28532;-76
2022/04/27 07:40:26;;;;;;;32.38;17.57;;;;;;;;;;4303659;81;28444;-77
2022/04/27 07:46:27;;;;;;;32.08;16.55;;;;;;;;;;4301219;81;28515;-76
2022/04/27 07:52:28;;;;;;;28.05;15.63;;;;;;;;;;4301886;82;28534;-75
2022/04/27 07:58:34;;;;;;;25.45;14.45;;;;;;;;;;4297700;81;28584;-86
2022/04/27 08:04:31;;;;;;;26.77;14.65;;;;;;;;;;4293064;82;28476;-86
2022/04/27 08:10:32;;;;;;;26.37;14.55;;;;;;;;;;4291682;82;28538;-85
2022/04/27 08:16:34;;;;;;;23.50;13.68;;;;;;;;;;4296698;81;28578;-85
2022/04/27 08:22:34;;;;;;;22.20;12.47;;;;;;;;;;4298053;82;28550;-86
2022/04/27 08:28:37;;;;;;;23.18;12.63;;;;;;;;;;4297518;81;28496;-85
2022/04/27 08:34:38;;;;;;;17.52;10.98;;;;;;;;;;4285845;81;28517;-88
2022/04/27 08:40:40;;;;;;;19.10;11.25;;;;;;;;;;4301184;81;28561;-87
2022/04/27 08:46:42;;;;;;;18.12;10.20;;;;;;;;;;4303264;81;28507;-88
2022/04/27 08:52:43;;;;;;;13.20;7.78;;;;;;;;;;4221933;83;28566;-76
2022/04/27 08:58:46;;;;;;;10.85;6.40;;;;;;;;;;4301657;81;28537;-85
2022/04/27 09:04:49;;;;;;;10.95;6.65;;;;;;;;;;4292458;82;28508;-85
2022/04/27 09:10:49;;;;;;;10.13;6.17;;;;;;;;;;4259952;82;28588;-77
2022/04/27 09:23:21;;;;;;;11.80;7.50;;;;;;;;;;4288262;81;28497;-77
2022/04/27 09:29:25;;;;;;;12.93;8.35;;;;;;;;;;4290085;81;28495;-77
2022/04/27 09:35:34;;;;;;;15.03;9.03;;;;;;;;;;4299006;81;28546;-76
2022/04/27 09:41:42;;;;;;;15.32;9.28;;;;;;;;;;4282911;81;28556;-77
2022/04/27 09:47:53;;;;;;;16.25;9.55;;;;;;;;;;4287950;81;28543;-77
2022/04/27 09:53:54;;;;;;;17.05;9.68;;;;;;;;;;4287509;81;28590;-77
2022/04/27 09:59:55;;;;;;;17.85;10.28;;;;;;;;;;4224373;83;28545;-78
2022/04/27 10:05:56;;;;;;;17.87;11.48;;;;;;;;;;4271144;82;28459;-74
2022/04/27 10:11:58;;;;;;;16.62;10.25;;;;;;;;;;4259292;83;28682;-72
2022/04/27 10:18:01;;;;;;;19.00;10.48;;;;;;;;;;4302863;81;28489;-74
2022/04/27 10:24:05;;;;;;;18.95;10.93;;;;;;;;;;4301528;82;28561;-74
2022/04/27 10:30:08;;;;;;;23.67;11.03;;;;;;;;;;4302736;81;28470;-75
2022/04/27 10:36:27;;;;;;;16.30;9.60;;;;;;;;;;4304571;83;28495;-75
2022/04/27 10:42:28;;;;;;;15.95;10.15;;;;;;;;;;4286774;83;29032;-76
2022/04/27 10:48:34;;;;;;;17.35;10.70;;;;;;;;;;4305069;83;28529;-75
2022/04/27 10:54:37;;;;;;;15.32;9.90;;;;;;;;;;4301137;81;28518;-75
2022/04/27 11:00:55;;;;;;;16.90;10.03;;;;;;;;;;4269002;81;28530;-76
2022/04/27 11:07:07;;;;;;;15.75;10.23;;;;;;;;;;4152198;84;28499;-76
2022/04/27 11:13:08;;;;;;;22.02;10.05;;;;;;;;;;4126149;84;28527;-76
2022/04/27 11:19:09;;;;;;;22.95;10.25;;;;;;;;;;4206070;83;28527;-75
2022/04/27 11:25:11;;;;;;;19.73;10.55;;;;;;;;;;4210338;83;28734;-75
2022/04/27 11:31:13;;;;;;;16.73;10.00;;;;;;;;;;4206640;84;28491;-75
2022/04/27 11:37:18;;;;;;;17.20;10.10;;;;;;;;;;4212498;83;28550;-75
2022/04/27 11:43:24;;;;;;;17.80;10.00;;;;;;;;;;4217349;83;38348;-74
2022/04/27 11:49:25;;;;;;;16.87;9.73;;;;;;;;;;4211922;83;28527;-75
2022/04/27 11:55:26;;;;;;;16.23;9.68;;;;;;;;;;4200500;83;28502;-74
2022/04/27 12:01:27;;;;;;;22.13;10.25;;;;;;;;;;4202267;83;29144;-76
2022/04/27 12:07:29;;;;;;;15.90;9.68;;;;;;;;;;4214779;84;28493;-75
2022/04/27 12:13:32;;;;;;;22.65;9.83;;;;;;;;;;4212453;83;28529;-76
2022/04/27 12:19:34;;;;;;;22.40;10.13;;;;;;;;;;4215110;84;28542;-77
2022/04/27 12:25:36;;;;;;;23.95;10.18;;;;;;;;;;4214749;83;28558;-79
2022/04/27 12:31:37;;;;;;;15.05;9.75;;;;;;;;;;4212396;83;28536;-77
2022/04/27 12:37:39;;;;;;;15.70;9.83;;;;;;;;;;4218441;83;28479;-78
2022/04/27 12:43:47;;;;;;;17.20;10.15;;;;;;;;;;4203863;83;28483;-78
2022/04/27 12:49:48;;;;;;;16.15;9.48;;;;;;;;;;4209709;84;28589;-82
2022/04/27 12:56:05;;;;;;;14.83;9.15;;;;;;;;;;4219228;83;28522;-77
2022/04/27 13:02:08;;;;;;;15.98;9.90;;;;;;;;;;4230189;82;28519;-77
2022/04/27 13:08:23;;;;;;;15.50;9.90;;;;;;;;;;4235689;82;28554;-78
2022/04/27 13:14:25;;;;;;;16.37;10.03;;;;;;;;;;4228286;84;28534;-78
2022/04/27 13:20:29;;;;;;;17.30;10.05;;;;;;;;;;4238011;82;28467;-76
2022/04/27 13:26:34;;;;;;;15.53;9.90;;;;;;;;;;4236786;82;28623;-77
2022/04/27 13:32:37;;;;;;;16.82;10.68;;;;;;;;;;4232228;82;28551;-76
2022/04/27 13:38:41;;;;;;;18.27;10.90;;;;;;;;;;4236951;83;28522;-77
2022/04/27 13:44:42;;;;;;;19.12;11.38;;;;;;;;;;4234450;82;28526;-77
2022/04/27 13:50:45;;;;;;;18.05;10.95;;;;;;;;;;4223757;82;28568;-78
2022/04/27 13:56:46;;;;;;;16.97;11.10;;;;;;;;;;4223642;82;28532;-79
2022/04/27 14:02:47;;;;;;;17.45;11.08;;;;;;;;;;4245564;82;28642;-77
2022/04/27 14:08:51;;;;;;;13.53;9.70;;;;;;;;;;4229775;84;28538;-77
2022/04/27 14:14:52;;;;;;;15.75;9.60;;;;;;;;;;4254189;82;28539;-77
2022/04/27 14:20:53;;;;;;;16.95;10.38;;;;;;;;;;4251037;83;28549;-78
2022/04/27 14:26:55;;;;;;;16.95;10.53;;;;;;;;;;4250535;82;28552;-81
2022/04/27 14:32:56;;;;;;;15.30;9.60;;;;;;;;;;4237494;82;28510;-79
2022/04/27 14:39:02;;;;;;;14.40;10.10;;;;;;;;;;4229544;82;28503;-74
2022/04/27 14:45:03;;;;;;;15.43;9.98;;;;;;;;;;4226907;82;28504;-81
2022/04/27 14:51:05;;;;;;;18.73;11.22;;;;;;;;;;4247004;82;28522;-81
2022/04/27 14:57:08;;;;;;;14.53;10.08;;;;;;;;;;4252104;83;28531;-83
2022/04/27 15:03:10;;;;;;;17.55;10.50;;;;;;;;;;4209713;82;28560;-80
2022/04/27 15:09:12;;;;;;;16.27;9.63;;;;;;;;;;4236881;83;28538;-81
2022/04/27 15:15:13;;;;;;;17.02;9.88;;;;;;;;;;4239317;82;28520;-81
2022/04/27 15:27:34;;;;;;;15.83;9.95;;;;;;;;;;4238896;83;28537;-80
2022/04/27 15:33:35;;;;;;;16.65;10.50;;;;;;;;;;4221089;82;28623;-80
2022/04/27 15:39:35;;;;;;;17.42;10.48;;;;;;;;;;4241703;83;28542;-80
2022/04/27 15:45:36;;;;;;;16.62;10.63;;;;;;;;;;4241199;83;28502;-81
2022/04/27 15:51:38;;;;;;;16.93;9.93;;;;;;;;;;4237653;82;28512;-80
2022/04/27 15:57:39;;;;;;;18.35;11.57;;;;;;;;;;4239144;82;28528;-79
2022/04/27 16:03:40;;;;;;;17.45;11.15;;;;;;;;;;4237421;82;28546;-79
2022/04/27 16:09:41;;;;;;;16.65;10.63;;;;;;;;;;4239727;82;28538;-79
2022/04/27 16:15:44;;;;;;;16.67;11.30;;;;;;;;;;4228953;82;28497;-80
2022/04/27 16:28:05;;;;;;;15.90;10.15;;;;;;;;;;4227543;84;28483;-79
2022/04/27 16:34:06;;;;;;;20.40;11.12;;;;;;;;;;4237139;82;28489;-80
2022/04/27 16:40:08;;;;;;;16.77;10.10;;;;;;;;;;4242334;82;28556;-83
2022/04/27 16:46:10;;;;;;;16.97;10.40;;;;;;;;;;4229134;83;28525;-84
2022/04/27 16:52:12;;;;;;;17.62;10.93;;;;;;;;;;4198569;82;28573;-83
2022/04/27 16:58:13;;;;;;;16.67;10.58;;;;;;;;;;4239280;82;28573;-83
2022/04/27 17:04:14;;;;;;;15.68;10.13;;;;;;;;;;4264609;82;28510;-86
2022/04/27 17:10:15;;;;;;;17.10;11.18;;;;;;;;;;4242389;82;28532;-83
2022/04/27 17:16:16;;;;;;;19.12;11.48;;;;;;;;;;4242731;82;28485;-84
2022/04/27 17:22:17;;;;;;;23.75;12.37;;;;;;;;;;4240034;82;28525;-85
2022/04/27 17:28:18;;;;;;;22.45;12.80;;;;;;;;;;4241941;83;28550;-86
2022/04/27 17:34:21;;;;;;;18.12;12.43;;;;;;;;;;4243819;82;28534;-85
2022/04/27 17:40:22;;;;;;;17.52;11.12;;;;;;;;;;4239688;84;28537;-83
2022/04/27 17:46:25;;;;;;;20.02;12.03;;;;;;;;;;4235573;83;28506;-80
2022/04/27 17:52:28;;;;;;;19.40;11.80;;;;;;;;;;4240103;82;28528;-81
2022/04/27 17:58:30;;;;;;;20.77;11.40;;;;;;;;;;4230830;82;28526;-81
2022/04/27 18:04:35;;;;;;;18.90;10.00;;;;;;;;;;4221687;83;28510;-79
2022/04/27 18:10:34;;;;;;;14.53;9.08;;;;;;;;;;4202890;83;28598;-82
2022/04/27 18:16:35;;;;;;;17.98;10.80;;;;;;;;;;4216155;83;28553;-84
2022/04/27 18:22:36;;;;;;;19.67;11.43;;;;;;;;;;4216748;83;28572;-84
2022/04/27 18:28:38;;;;;;;22.62;13.13;;;;;;;;;;4215613;84;28537;-83
2022/04/27 18:34:40;;;;;;;21.48;12.10;;;;;;;;;;4213172;83;28546;-81
2022/04/27 18:40:42;;;;;;;23.00;13.18;;;;;;;;;;4213943;84;28463;-83
2022/04/27 18:53:06;;;;;;;22.80;13.68;;;;;;;;;;4177983;83;28996;-81
2022/04/27 18:59:12;;;;;;;21.52;12.05;;;;;;;;;;4211476;84;28587;-81
2022/04/27 19:05:15;;;;;;;23.73;12.17;;;;;;;;;;4213806;84;28544;-81
2022/04/27 19:11:16;;;;;;;21.07;11.60;;;;;;;;;;4236658;82;28580;-80
2022/04/27 19:17:17;;;;;;;23.57;13.00;;;;;;;;;;4235954;83;28523;-83
2022/04/27 19:23:18;;;;;;;21.40;12.47;;;;;;;;;;4241872;82;28551;-86
2022/04/27 19:29:19;;;;;;;20.23;11.88;;;;;;;;;;4239563;84;28468;-79
2022/04/27 19:35:22;;;;;;;22.00;12.23;;;;;;;;;;4239996;82;28660;-85
2022/04/27 19:41:24;;;;;;;21.80;11.33;;;;;;;;;;4237182;82;28532;-83
2022/04/27 19:47:26;;;;;;;21.73;12.35;;;;;;;;;;4230994;82;28526;-82
2022/04/27 19:53:27;;;;;;;20.40;12.33;;;;;;;;;;4240396;83;28562;-75
2022/04/27 19:59:32;;;;;;;23.52;13.22;;;;;;;;;;4219329;82;28588;-82
2022/04/27 20:05:34;;;;;;;22.77;12.90;;;;;;;;;;4217375;83;28558;-84
2022/04/27 20:11:36;;;;;;;22.62;12.10;;;;;;;;;;4193061;84;28580;-82
2022/04/27 20:17:38;;;;;;;22.42;12.70;;;;;;;;;;4213644;84;28479;-82
2022/04/27 20:23:41;;;;;;;25.68;13.75;;;;;;;;;;4213293;84;28590;-82
2022/04/27 20:29:42;;;;;;;28.95;15.58;;;;;;;;;;4212520;84;28501;-81
2022/04/27 20:35:43;;;;;;;24.57;15.70;;;;;;;;;;4216318;84;28559;-81
2022/04/27 20:41:44;;;;;;;29.92;17.48;;;;;;;;;;4211268;84;28500;-82
2022/04/27 20:47:45;;;;;;;31.97;17.17;;;;;;;;;;4216596;83;28558;-82
2022/04/27 20:53:48;;;;;;;29.67;16.37;;;;;;;;;;4213221;83;28615;-82
2022/04/27 20:59:50;;;;;;;26.62;15.10;;;;;;;;;;4214920;83;28533;-82
2022/04/27 21:05:51;;;;;;;29.82;16.65;;;;;;;;;;4207539;83;28561;-81
2022/04/27 21:11:52;;;;;;;26.27;15.32;;;;;;;;;;4210734;83;28497;-81
2022/04/27 21:17:53;;;;;;;24.23;14.75;;;;;;;;;;4211799;84;28499;-81
2022/04/27 21:23:54;;;;;;;25.57;14.87;;;;;;;;;;4221313;83;28576;-81
2022/04/27 21:29:55;;;;;;;25.43;14.38;;;;;;;;;;4211091;84;28556;-82
2022/04/27 21:35:57;;;;;;;26.95;14.70;;;;;;;;;;4206141;84;28550;-82
2022/04/27 21:41:59;;;;;;;29.07;16.55;;;;;;;;;;4215789;84;28586;-82
2022/04/27 21:48:00;;;;;;;24.27;14.70;;;;;;;;;;4214666;84;28606;-82
2022/04/27 21:54:02;;;;;;;29.70;17.12;;;;;;;;;;4215773;83;28483;-82
2022/04/27 22:00:05;;;;;;;24.98;15.18;;;;;;;;;;4215595;83;28507;-82
2022/04/27 22:06:08;;;;;;;22.73;13.45;;;;;;;;;;4216726;83;28519;-82
2022/04/27 22:12:09;;;;;;;24.50;14.53;;;;;;;;;;4208622;83;28533;-82
2022/04/27 22:18:10;;;;;;;27.37;15.05;;;;;;;;;;4214412;83;28558;-82
2022/04/27 22:24:11;;;;;;;28.35;17.27;;;;;;;;;;4207467;84;28491;-81
2022/04/27 22:30:14;;;;;;;30.00;17.37;;;;;;;;;;4213956;83;28544;-82
2022/04/27 22:36:15;;;;;;;31.23;17.35;;;;;;;;;;4210514;83;28561;-82
2022/04/27 22:42:16;;;;;;;31.45;16.05;;;;;;;;;;4205576;83;28546;-82
2022/04/27 22:48:17;;;;;;;26.27;15.05;;;;;;;;;;4199470;84;28536;-82
2022/04/27 22:54:17;;;;;;;26.73;15.53;;;;;;;;;;4213751;83;28513;-83
2022/04/27 23:00:18;;;;;;;27.67;15.53;;;;;;;;;;4213531;83;28504;-82
2022/04/27 23:06:19;;;;;;;29.30;16.75;;;;;;;;;;4232731;82;28514;-83
2022/04/27 23:12:21;;;;;;;31.45;16.12;;;;;;;;;;4239178;83;28536;-82
2022/04/27 23:18:23;;;;;;;27.13;15.88;;;;;;;;;;4231353;83;28564;-83
2022/04/27 23:24:24;;;;;;;29.63;15.95;;;;;;;;;;4234714;82;28532;-82
2022/04/27 23:30:26;;;;;;;25.68;14.78;;;;;;;;;;4242708;82;28473;-83
2022/04/27 23:36:27;;;;;;;30.48;15.80;;;;;;;;;;4236630;84;28551;-81
2022/04/27 23:42:28;;;;;;;30.35;17.27;;;;;;;;;;4232848;84;28514;-83
2022/04/27 23:48:29;;;;;;;30.92;16.97;;;;;;;;;;4237666;82;29153;-82
2022/04/27 23:54:30;;;;;;;30.35;16.60;;;;;;;;;;4240186;83;28520;-82
